LEIBLMML

Guest
Details From LEIB - Ibiza
To LMML - La Valette Luqa
Flight Number -
Tags decoded
Created
Modified
Stats Distance 651 nm / 1,205 km
Max Altitude 0 ft / 0 m
Waypoints 2
Social Downloads 0
Likes 0
Share

Download

Looking for another format? Having issues loading an existing format? Contact us
Advertisement - Login to hide

Notes

Requested: LEIB LMML

Route

LEIB LMML

ID Type Via Altitude (ft/m) Position (lat/lon) Dist (leg/tot) Name
O LEIB APT - 0 / 0 38.87287 / 1.37304 - / 0 nm Ibiza
O LMML APT - 0 / 0 35.84948 / 14.48184 650 / 650 nm La Valette Luqa

Altitude Profile

Advertisement - Login to hide

Weather


0- 5 10 15 20 25 30 35+ Temperature / °C

Clouds and Precipitation
Forecast for 2020-08-07 06:00 UTC. Updated 8 minutes ago

Ground ~20,000 ft ~40,000 ft Winds

LEIB

Details ICAO LEIB (IBZ)
Name Ibiza
Region Spain
Timezone Europe/Madrid (UTC+2.0)
Stats Elevation 20 ft / 6 m (AMSL)
Location 38.872900° 1.373100°
Runways 1
Magnetic Variation 0.950° E

METAR

LEIB 070330Z VRB02KT CAVOK 21/20 Q1017 NOSIG

Decode

TAF

TAF LEIB 070200Z 0703/0803 VRB04KT 9999 FEW025 TX31/0712Z TN20/0705Z BECMG 0708/0710 15008KT

Decode

Departure Runways

ID Width Length Bearing (true/mag) Surface Threshold Overrun Markings Lighting
06 148 ft / 45 m 9,196 ft / 2,803 m 61.99° / 61.04° ASPHALT 0 ft / 0 m 177 ft / 54 m APP CENTERLINE EDGE THRESHOLD MALS
24 148 ft / 45 m 9,196 ft / 2,803 m 242.01° / 241.06° ASPHALT 0 ft / 0 m 197 ft / 60 m PREC-APP CENTERLINE EDGE THRESHOLD CALVERT

LMML

Details ICAO LMML (MLA)
Name Malta Intl
Region Malta
Timezone Europe/Malta (UTC+2.0)
Stats Elevation 297 ft / 91 m (AMSL)
Location 35.849400° 14.481800°
Runways 2
Magnetic Variation 3.269° E

METAR

LMML 070315Z 35007KT 9999 FEW020 24/21 Q1013 NOSIG

Decode

TAF

TAF LMML 062300Z 0700/0724 35012KT 9999 FEW025 BECMG 0720/0723 29014KT

Decode

Destination Runways

ID Width Length Bearing (true/mag) Surface Threshold Overrun Markings Lighting
05 148 ft / 45 m 7,794 ft / 2,376 m 54.40° / 51.13° ASPHALT 0 ft / 0 m 95 ft / 29 m APP EDGE THRESHOLD MALS REIL-OMNI
13 197 ft / 60 m 11,618 ft / 3,541 m 134.87° / 131.60° ASPHALT 0 ft / 0 m 0 ft / 0 m PREC-APP CENTERLINE EDGE THRESHOLD ALSF-I REIL-OMNI
23 148 ft / 45 m 7,794 ft / 2,376 m 234.42° / 231.15° ASPHALT 0 ft / 0 m 102 ft / 31 m APP EDGE THRESHOLD MALS REIL-OMNI
31 197 ft / 60 m 11,618 ft / 3,541 m 314.89° / 311.62° ASPHALT 614 ft / 187 m 177 ft / 54 m PREC-APP CENTERLINE EDGE THRESHOLD ALSF-I REIL-OMNI

Approach Navaids

Runway Type Ident Frequency Range Bearing (true/mag) Slope Elevation
13 GS LQ 109.70 MHz 10 nm / 19 km 134.86° / 131.59 ° 2.85° 299 ft / 91 m (AMSL)
13 LOC-ILS LQ 109.70 MHz 18 nm / 33 km 134.86° / 131.59 ° - 299 ft / 91 m (AMSL)
31 GS LM 110.50 MHz 10 nm / 19 km 314.86° / 311.59 ° 2.85° 299 ft / 91 m (AMSL)
31 LOC-ILS LM 110.50 MHz 18 nm / 33 km 314.86° / 311.59 ° - 299 ft / 91 m (AMSL)

Popular Alternatives